sensor_id;sensor_type;location;lat;lon;timestamp;P1;durP1;ratioP1;P2;durP2;ratioP2
65831;SDS011;52593;42.648;23.332;2023-09-19T00:00:59;7.68;;;3.78;;
65831;SDS011;52593;42.648;23.332;2023-09-19T00:03:25;8.90;;;3.87;;
65831;SDS011;52593;42.648;23.332;2023-09-19T00:05:50;8.13;;;3.90;;
65831;SDS011;52593;42.648;23.332;2023-09-19T00:08:16;7.83;;;3.53;;
65831;SDS011;52593;42.648;23.332;2023-09-19T00:10:42;8.60;;;3.50;;
65831;SDS011;52593;42.648;23.332;2023-09-19T00:13:08;7.13;;;3.30;;
65831;SDS011;52593;42.648;23.332;2023-09-19T00:15:39;7.65;;;3.72;;
65831;SDS011;52593;42.648;23.332;2023-09-19T00:18:05;7.65;;;3.55;;
65831;SDS011;52593;42.648;23.332;2023-09-19T00:20:32;7.75;;;3.35;;
65831;SDS011;52593;42.648;23.332;2023-09-19T00:22:58;7.63;;;3.27;;
65831;SDS011;52593;42.648;23.332;2023-09-19T00:25:24;7.13;;;3.25;;
65831;SDS011;52593;42.648;23.332;2023-09-19T00:27:50;6.43;;;3.50;;
65831;SDS011;52593;42.648;23.332;2023-09-19T00:30:16;7.53;;;3.42;;
65831;SDS011;52593;42.648;23.332;2023-09-19T00:32:48;6.80;;;3.25;;
65831;SDS011;52593;42.648;23.332;2023-09-19T00:35:19;8.97;;;3.53;;
65831;SDS011;52593;42.648;23.332;2023-09-19T00:37:45;9.60;;;3.75;;
65831;SDS011;52593;42.648;23.332;2023-09-19T00:40:11;11.07;;;3.85;;
65831;SDS011;52593;42.648;23.332;2023-09-19T00:42:43;7.87;;;3.43;;
65831;SDS011;52593;42.648;23.332;2023-09-19T00:45:12;7.90;;;3.28;;
65831;SDS011;52593;42.648;23.332;2023-09-19T00:47:39;7.95;;;3.72;;
65831;SDS011;52593;42.648;23.332;2023-09-19T00:50:07;9.52;;;3.60;;
65831;SDS011;52593;42.648;23.332;2023-09-19T00:52:36;7.15;;;3.67;;
65831;SDS011;52593;42.648;23.332;2023-09-19T00:55:04;6.93;;;3.20;;
65831;SDS011;52593;42.648;23.332;2023-09-19T00:57:31;8.23;;;4.03;;
65831;SDS011;52593;42.648;23.332;2023-09-19T00:59:58;8.00;;;3.78;;
65831;SDS011;52593;42.648;23.332;2023-09-19T01:02:25;7.35;;;3.67;;
65831;SDS011;52593;42.648;23.332;2023-09-19T01:04:53;7.97;;;3.47;;
65831;SDS011;52593;42.648;23.332;2023-09-19T01:07:19;7.23;;;3.57;;
65831;SDS011;52593;42.648;23.332;2023-09-19T01:09:47;9.07;;;3.35;;
65831;SDS011;52593;42.648;23.332;2023-09-19T01:12:12;7.00;;;3.40;;
65831;SDS011;52593;42.648;23.332;2023-09-19T01:14:55;7.35;;;3.60;;
65831;SDS011;52593;42.648;23.332;2023-09-19T01:17:30;9.40;;;3.80;;
65831;SDS011;52593;42.648;23.332;2023-09-19T01:28:32;8.15;;;3.72;;
65831;SDS011;52593;42.648;23.332;2023-09-19T01:31:03;9.43;;;3.63;;
65831;SDS011;52593;42.648;23.332;2023-09-19T01:36:23;8.35;;;3.50;;
65831;SDS011;52593;42.648;23.332;2023-09-19T01:38:49;7.60;;;3.57;;
65831;SDS011;52593;42.648;23.332;2023-09-19T01:41:17;8.68;;;3.80;;
65831;SDS011;52593;42.648;23.332;2023-09-19T01:43:50;8.90;;;3.90;;
65831;SDS011;52593;42.648;23.332;2023-09-19T01:46:19;8.30;;;3.70;;
65831;SDS011;52593;42.648;23.332;2023-09-19T01:54:50;9.55;;;4.88;;
65831;SDS011;52593;42.648;23.332;2023-09-19T01:57:20;9.95;;;5.22;;
65831;SDS011;52593;42.648;23.332;2023-09-19T02:00:05;12.20;;;5.43;;
65831;SDS011;52593;42.648;23.332;2023-09-19T02:02:36;10.70;;;5.07;;
65831;SDS011;52593;42.648;23.332;2023-09-19T02:05:03;10.43;;;5.13;;
65831;SDS011;52593;42.648;23.332;2023-09-19T02:07:30;11.05;;;5.70;;
65831;SDS011;52593;42.648;23.332;2023-09-19T02:10:00;13.40;;;5.63;;
65831;SDS011;52593;42.648;23.332;2023-09-19T02:12:26;12.27;;;5.50;;
65831;SDS011;52593;42.648;23.332;2023-09-19T02:14:52;12.75;;;5.22;;
65831;SDS011;52593;42.648;23.332;2023-09-19T02:17:18;9.37;;;5.00;;
65831;SDS011;52593;42.648;23.332;2023-09-19T02:19:44;10.88;;;4.97;;
65831;SDS011;52593;42.648;23.332;2023-09-19T02:22:09;12.13;;;5.40;;
65831;SDS011;52593;42.648;23.332;2023-09-19T02:24:38;10.00;;;5.23;;
65831;SDS011;52593;42.648;23.332;2023-09-19T02:27:04;11.32;;;5.90;;
65831;SDS011;52593;42.648;23.332;2023-09-19T02:29:30;10.63;;;5.90;;
65831;SDS011;52593;42.648;23.332;2023-09-19T02:31:56;11.90;;;5.82;;
65831;SDS011;52593;42.648;23.332;2023-09-19T02:34:22;15.93;;;6.13;;
65831;SDS011;52593;42.648;23.332;2023-09-19T02:36:48;10.32;;;5.32;;
65831;SDS011;52593;42.648;23.332;2023-09-19T02:39:13;10.80;;;5.10;;
65831;SDS011;52593;42.648;23.332;2023-09-19T02:41:38;11.57;;;5.20;;
65831;SDS011;52593;42.648;23.332;2023-09-19T02:44:04;12.23;;;5.67;;
65831;SDS011;52593;42.648;23.332;2023-09-19T02:46:33;11.82;;;5.72;;
65831;SDS011;52593;42.648;23.332;2023-09-19T02:48:58;11.75;;;5.40;;
65831;SDS011;52593;42.648;23.332;2023-09-19T02:51:24;12.00;;;5.43;;
65831;SDS011;52593;42.648;23.332;2023-09-19T02:53:50;10.70;;;5.50;;
65831;SDS011;52593;42.648;23.332;2023-09-19T02:56:17;11.55;;;5.60;;
65831;SDS011;52593;42.648;23.332;2023-09-19T02:58:43;9.90;;;5.57;;
65831;SDS011;52593;42.648;23.332;2023-09-19T03:01:11;10.37;;;5.47;;
65831;SDS011;52593;42.648;23.332;2023-09-19T03:03:37;12.20;;;5.70;;
65831;SDS011;52593;42.648;23.332;2023-09-19T03:06:04;10.45;;;5.28;;
65831;SDS011;52593;42.648;23.332;2023-09-19T03:08:30;11.75;;;6.00;;
65831;SDS011;52593;42.648;23.332;2023-09-19T03:10:56;12.40;;;5.73;;
65831;SDS011;52593;42.648;23.332;2023-09-19T03:13:21;11.80;;;5.53;;
65831;SDS011;52593;42.648;23.332;2023-09-19T03:15:47;11.20;;;5.33;;
65831;SDS011;52593;42.648;23.332;2023-09-19T03:18:15;10.27;;;5.50;;
65831;SDS011;52593;42.648;23.332;2023-09-19T03:20:41;11.30;;;5.20;;
65831;SDS011;52593;42.648;23.332;2023-09-19T03:23:06;10.90;;;5.70;;
65831;SDS011;52593;42.648;23.332;2023-09-19T03:25:36;15.27;;;6.20;;
65831;SDS011;52593;42.648;23.332;2023-09-19T03:28:01;13.15;;;6.05;;
65831;SDS011;52593;42.648;23.332;2023-09-19T03:30:30;11.32;;;5.53;;
65831;SDS011;52593;42.648;23.332;2023-09-19T03:32:57;12.95;;;5.68;;
65831;SDS011;52593;42.648;23.332;2023-09-19T03:35:23;10.97;;;6.07;;
65831;SDS011;52593;42.648;23.332;2023-09-19T03:37:48;10.60;;;5.73;;
65831;SDS011;52593;42.648;23.332;2023-09-19T03:40:14;13.27;;;5.87;;
65831;SDS011;52593;42.648;23.332;2023-09-19T03:42:41;11.23;;;6.03;;
65831;SDS011;52593;42.648;23.332;2023-09-19T03:45:07;11.23;;;6.30;;
65831;SDS011;52593;42.648;23.332;2023-09-19T03:47:37;11.98;;;5.53;;
65831;SDS011;52593;42.648;23.332;2023-09-19T03:50:04;11.70;;;5.90;;
65831;SDS011;52593;42.648;23.332;2023-09-19T03:52:30;11.80;;;5.77;;
65831;SDS011;52593;42.648;23.332;2023-09-19T03:54:56;12.70;;;5.90;;
65831;SDS011;52593;42.648;23.332;2023-09-19T03:57:21;11.80;;;5.63;;
65831;SDS011;52593;42.648;23.332;2023-09-19T03:59:47;14.27;;;5.67;;
65831;SDS011;52593;42.648;23.332;2023-09-19T04:02:12;11.77;;;5.67;;
65831;SDS011;52593;42.648;23.332;2023-09-19T04:04:47;14.03;;;6.23;;
65831;SDS011;52593;42.648;23.332;2023-09-19T04:07:16;13.27;;;5.85;;
65831;SDS011;52593;42.648;23.332;2023-09-19T04:09:42;12.80;;;6.05;;
65831;SDS011;52593;42.648;23.332;2023-09-19T04:12:07;16.73;;;7.00;;
65831;SDS011;52593;42.648;23.332;2023-09-19T04:14:36;13.60;;;6.45;;
65831;SDS011;52593;42.648;23.332;2023-09-19T04:17:02;12.03;;;6.20;;
65831;SDS011;52593;42.648;23.332;2023-09-19T04:19:28;11.70;;;6.40;;
65831;SDS011;52593;42.648;23.332;2023-09-19T04:21:53;12.17;;;6.27;;
65831;SDS011;52593;42.648;23.332;2023-09-19T04:24:19;11.73;;;6.10;;
65831;SDS011;52593;42.648;23.332;2023-09-19T04:26:44;13.37;;;5.77;;
65831;SDS011;52593;42.648;23.332;2023-09-19T04:29:10;12.52;;;6.40;;
65831;SDS011;52593;42.648;23.332;2023-09-19T04:31:36;13.40;;;6.20;;
65831;SDS011;52593;42.648;23.332;2023-09-19T04:34:03;12.13;;;6.30;;
65831;SDS011;52593;42.648;23.332;2023-09-19T04:36:28;13.80;;;6.07;;
65831;SDS011;52593;42.648;23.332;2023-09-19T04:38:55;12.13;;;5.95;;
65831;SDS011;52593;42.648;23.332;2023-09-19T04:41:20;13.25;;;6.40;;
65831;SDS011;52593;42.648;23.332;2023-09-19T04:43:47;13.67;;;6.23;;
65831;SDS011;52593;42.648;23.332;2023-09-19T04:46:14;12.00;;;6.45;;
65831;SDS011;52593;42.648;23.332;2023-09-19T04:48:40;13.03;;;6.53;;
65831;SDS011;52593;42.648;23.332;2023-09-19T04:51:06;13.30;;;6.65;;
65831;SDS011;52593;42.648;23.332;2023-09-19T04:53:32;14.57;;;6.47;;
65831;SDS011;52593;42.648;23.332;2023-09-19T04:55:57;13.03;;;6.23;;
65831;SDS011;52593;42.648;23.332;2023-09-19T04:58:23;12.20;;;6.33;;
65831;SDS011;52593;42.648;23.332;2023-09-19T05:00:48;14.02;;;6.55;;
65831;SDS011;52593;42.648;23.332;2023-09-19T05:03:16;13.77;;;6.43;;
65831;SDS011;52593;42.648;23.332;2023-09-19T05:05:42;14.20;;;6.10;;
65831;SDS011;52593;42.648;23.332;2023-09-19T05:08:07;15.38;;;6.60;;
65831;SDS011;52593;42.648;23.332;2023-09-19T05:10:34;11.73;;;6.22;;
65831;SDS011;52593;42.648;23.332;2023-09-19T05:13:03;12.32;;;5.60;;
65831;SDS011;52593;42.648;23.332;2023-09-19T05:15:30;13.03;;;6.27;;
65831;SDS011;52593;42.648;23.332;2023-09-19T05:17:56;15.80;;;7.75;;
65831;SDS011;52593;42.648;23.332;2023-09-19T05:20:21;13.90;;;7.37;;
65831;SDS011;52593;42.648;23.332;2023-09-19T05:23:03;14.63;;;7.28;;
65831;SDS011;52593;42.648;23.332;2023-09-19T05:25:36;15.07;;;8.10;;
65831;SDS011;52593;42.648;23.332;2023-09-19T05:28:04;23.52;;;10.23;;
65831;SDS011;52593;42.648;23.332;2023-09-19T05:30:33;20.85;;;9.02;;
65831;SDS011;52593;42.648;23.332;2023-09-19T05:33:00;13.30;;;6.83;;
65831;SDS011;52593;42.648;23.332;2023-09-19T05:35:27;13.88;;;6.72;;
65831;SDS011;52593;42.648;23.332;2023-09-19T05:37:52;13.30;;;5.73;;
65831;SDS011;52593;42.648;23.332;2023-09-19T05:40:20;12.05;;;5.68;;
65831;SDS011;52593;42.648;23.332;2023-09-19T05:42:46;15.48;;;5.72;;
65831;SDS011;52593;42.648;23.332;2023-09-19T05:45:12;13.32;;;5.57;;
65831;SDS011;52593;42.648;23.332;2023-09-19T05:47:39;11.97;;;5.93;;
65831;SDS011;52593;42.648;23.332;2023-09-19T05:50:06;10.43;;;5.25;;
65831;SDS011;52593;42.648;23.332;2023-09-19T05:52:34;14.40;;;5.70;;
65831;SDS011;52593;42.648;23.332;2023-09-19T05:55:04;11.23;;;5.25;;
65831;SDS011;52593;42.648;23.332;2023-09-19T05:57:31;12.00;;;5.25;;
65831;SDS011;52593;42.648;23.332;2023-09-19T05:59:57;15.67;;;4.93;;
65831;SDS011;52593;42.648;23.332;2023-09-19T06:02:23;9.57;;;4.78;;
65831;SDS011;52593;42.648;23.332;2023-09-19T06:04:48;10.83;;;4.40;;
65831;SDS011;52593;42.648;23.332;2023-09-19T06:07:14;10.53;;;5.10;;
65831;SDS011;52593;42.648;23.332;2023-09-19T06:09:41;11.23;;;4.60;;
65831;SDS011;52593;42.648;23.332;2023-09-19T06:12:07;10.27;;;4.80;;
65831;SDS011;52593;42.648;23.332;2023-09-19T06:14:32;8.32;;;4.10;;
65831;SDS011;52593;42.648;23.332;2023-09-19T06:16:58;12.03;;;4.10;;
65831;SDS011;52593;42.648;23.332;2023-09-19T06:19:25;8.48;;;4.20;;
65831;SDS011;52593;42.648;23.332;2023-09-19T06:21:52;10.07;;;4.13;;
65831;SDS011;52593;42.648;23.332;2023-09-19T06:24:19;10.75;;;3.90;;
65831;SDS011;52593;42.648;23.332;2023-09-19T06:26:44;8.15;;;3.83;;
65831;SDS011;52593;42.648;23.332;2023-09-19T06:29:10;11.87;;;4.20;;
65831;SDS011;52593;42.648;23.332;2023-09-19T06:31:35;7.93;;;4.05;;
65831;SDS011;52593;42.648;23.332;2023-09-19T06:34:03;8.63;;;3.87;;
65831;SDS011;52593;42.648;23.332;2023-09-19T06:36:29;10.30;;;4.55;;
65831;SDS011;52593;42.648;23.332;2023-09-19T06:38:54;10.30;;;4.50;;
65831;SDS011;52593;42.648;23.332;2023-09-19T06:41:20;11.33;;;3.90;;
65831;SDS011;52593;42.648;23.332;2023-09-19T06:43:49;15.30;;;6.78;;
65831;SDS011;52593;42.648;23.332;2023-09-19T06:46:17;9.38;;;4.30;;
65831;SDS011;52593;42.648;23.332;2023-09-19T06:48:43;9.85;;;4.18;;
65831;SDS011;52593;42.648;23.332;2023-09-19T06:51:09;8.90;;;3.90;;
65831;SDS011;52593;42.648;23.332;2023-09-19T06:53:35;11.10;;;3.90;;
65831;SDS011;52593;42.648;23.332;2023-09-19T06:56:01;10.57;;;4.90;;
65831;SDS011;52593;42.648;23.332;2023-09-19T06:58:27;12.68;;;6.13;;
65831;SDS011;52593;42.648;23.332;2023-09-19T07:00:53;10.23;;;4.38;;
65831;SDS011;52593;42.648;23.332;2023-09-19T07:03:19;13.30;;;4.23;;
65831;SDS011;52593;42.648;23.332;2023-09-19T07:05:47;9.13;;;3.88;;
65831;SDS011;52593;42.648;23.332;2023-09-19T07:08:13;11.00;;;4.07;;
65831;SDS011;52593;42.648;23.332;2023-09-19T07:10:39;9.57;;;4.90;;
65831;SDS011;52593;42.648;23.332;2023-09-19T07:13:06;8.88;;;4.72;;
65831;SDS011;52593;42.648;23.332;2023-09-19T07:15:35;9.02;;;4.28;;
65831;SDS011;52593;42.648;23.332;2023-09-19T07:18:04;11.88;;;4.60;;
65831;SDS011;52593;42.648;23.332;2023-09-19T07:20:30;10.52;;;4.78;;
65831;SDS011;52593;42.648;23.332;2023-09-19T07:22:57;13.53;;;5.00;;
65831;SDS011;52593;42.648;23.332;2023-09-19T07:25:26;10.02;;;4.50;;
65831;SDS011;52593;42.648;23.332;2023-09-19T07:27:55;11.07;;;4.53;;
65831;SDS011;52593;42.648;23.332;2023-09-19T07:30:21;13.45;;;6.72;;
65831;SDS011;52593;42.648;23.332;2023-09-19T07:32:47;17.57;;;9.30;;
65831;SDS011;52593;42.648;23.332;2023-09-19T07:35:13;11.15;;;5.07;;
65831;SDS011;52593;42.648;23.332;2023-09-19T07:37:40;10.45;;;4.50;;
65831;SDS011;52593;42.648;23.332;2023-09-19T07:40:05;11.77;;;4.67;;
65831;SDS011;52593;42.648;23.332;2023-09-19T07:42:35;10.85;;;4.40;;
65831;SDS011;52593;42.648;23.332;2023-09-19T07:45:02;13.73;;;4.53;;
65831;SDS011;52593;42.648;23.332;2023-09-19T07:47:28;8.97;;;4.33;;
65831;SDS011;52593;42.648;23.332;2023-09-19T07:49:55;13.73;;;4.97;;
65831;SDS011;52593;42.648;23.332;2023-09-19T07:52:20;9.40;;;4.45;;
65831;SDS011;52593;42.648;23.332;2023-09-19T07:54:47;10.27;;;4.20;;
65831;SDS011;52593;42.648;23.332;2023-09-19T07:57:14;10.98;;;5.00;;
65831;SDS011;52593;42.648;23.332;2023-09-19T07:59:41;10.93;;;4.70;;
65831;SDS011;52593;42.648;23.332;2023-09-19T08:02:07;8.88;;;4.90;;
65831;SDS011;52593;42.648;23.332;2023-09-19T08:04:40;11.70;;;5.03;;
65831;SDS011;52593;42.648;23.332;2023-09-19T08:07:07;12.17;;;4.90;;
65831;SDS011;52593;42.648;23.332;2023-09-19T08:09:34;15.00;;;7.60;;
65831;SDS011;52593;42.648;23.332;2023-09-19T08:12:00;14.73;;;7.55;;
65831;SDS011;52593;42.648;23.332;2023-09-19T08:14:30;8.33;;;4.87;;
65831;SDS011;52593;42.648;23.332;2023-09-19T08:16:58;13.73;;;4.63;;
65831;SDS011;52593;42.648;23.332;2023-09-19T08:19:24;10.50;;;4.40;;
65831;SDS011;52593;42.648;23.332;2023-09-19T08:21:54;13.80;;;4.93;;
65831;SDS011;52593;42.648;23.332;2023-09-19T08:24:29;11.63;;;4.70;;
65831;SDS011;52593;42.648;23.332;2023-09-19T08:26:56;13.57;;;5.63;;
65831;SDS011;52593;42.648;23.332;2023-09-19T08:29:22;29.38;;;6.10;;
65831;SDS011;52593;42.648;23.332;2023-09-19T08:31:55;14.87;;;4.90;;
65831;SDS011;52593;42.648;23.332;2023-09-19T08:34:22;12.00;;;4.65;;
65831;SDS011;52593;42.648;23.332;2023-09-19T08:36:48;12.32;;;5.03;;
65831;SDS011;52593;42.648;23.332;2023-09-19T08:39:22;10.43;;;5.03;;
65831;SDS011;52593;42.648;23.332;2023-09-19T08:41:57;10.38;;;5.20;;
65831;SDS011;52593;42.648;23.332;2023-09-19T08:44:24;15.20;;;6.77;;
65831;SDS011;52593;42.648;23.332;2023-09-19T08:46:49;16.55;;;5.47;;
65831;SDS011;52593;42.648;23.332;2023-09-19T08:49:24;12.77;;;4.65;;
65831;SDS011;52593;42.648;23.332;2023-09-19T08:52:19;15.88;;;5.68;;
65831;SDS011;52593;42.648;23.332;2023-09-19T08:54:46;12.90;;;5.22;;
65831;SDS011;52593;42.648;23.332;2023-09-19T08:57:14;11.67;;;5.43;;
65831;SDS011;52593;42.648;23.332;2023-09-19T08:59:46;12.05;;;5.05;;
65831;SDS011;52593;42.648;23.332;2023-09-19T09:02:14;9.88;;;4.88;;
65831;SDS011;52593;42.648;23.332;2023-09-19T09:04:40;14.50;;;5.90;;
65831;SDS011;52593;42.648;23.332;2023-09-19T09:07:11;15.38;;;6.75;;
65831;SDS011;52593;42.648;23.332;2023-09-19T09:09:42;14.30;;;5.40;;
65831;SDS011;52593;42.648;23.332;2023-09-19T09:12:12;14.98;;;5.55;;
65831;SDS011;52593;42.648;23.332;2023-09-19T09:14:47;13.25;;;5.53;;
65831;SDS011;52593;42.648;23.332;2023-09-19T09:17:17;12.15;;;5.28;;
65831;SDS011;52593;42.648;23.332;2023-09-19T09:19:45;14.48;;;5.32;;
65831;SDS011;52593;42.648;23.332;2023-09-19T09:22:12;11.67;;;5.17;;
65831;SDS011;52593;42.648;23.332;2023-09-19T09:24:37;16.90;;;6.15;;
65831;SDS011;52593;42.648;23.332;2023-09-19T09:27:19;12.43;;;5.55;;
65831;SDS011;52593;42.648;23.332;2023-09-19T09:29:49;13.47;;;5.43;;
65831;SDS011;52593;42.648;23.332;2023-09-19T09:32:25;11.38;;;5.43;;
65831;SDS011;52593;42.648;23.332;2023-09-19T09:34:59;14.98;;;5.90;;
65831;SDS011;52593;42.648;23.332;2023-09-19T09:37:26;11.75;;;5.63;;
65831;SDS011;52593;42.648;23.332;2023-09-19T09:39:56;12.23;;;5.97;;
65831;SDS011;52593;42.648;23.332;2023-09-19T09:42:33;10.67;;;5.23;;
65831;SDS011;52593;42.648;23.332;2023-09-19T09:45:17;12.77;;;5.05;;
65831;SDS011;52593;42.648;23.332;2023-09-19T09:47:43;11.30;;;4.80;;
65831;SDS011;52593;42.648;23.332;2023-09-19T09:50:36;13.13;;;5.25;;
65831;SDS011;52593;42.648;23.332;2023-09-19T09:53:26;13.82;;;6.28;;
65831;SDS011;52593;42.648;23.332;2023-09-19T09:55:57;15.47;;;7.27;;
65831;SDS011;52593;42.648;23.332;2023-09-19T09:58:35;12.30;;;5.45;;
65831;SDS011;52593;42.648;23.332;2023-09-19T10:01:02;10.35;;;5.93;;
65831;SDS011;52593;42.648;23.332;2023-09-19T10:03:40;12.48;;;5.75;;
65831;SDS011;52593;42.648;23.332;2023-09-19T10:06:13;13.65;;;6.90;;
65831;SDS011;52593;42.648;23.332;2023-09-19T10:12:02;11.70;;;5.45;;
65831;SDS011;52593;42.648;23.332;2023-09-19T10:14:30;10.80;;;4.95;;
65831;SDS011;52593;42.648;23.332;2023-09-19T10:17:03;9.30;;;4.85;;
65831;SDS011;52593;42.648;23.332;2023-09-19T10:19:42;10.70;;;5.05;;
65831;SDS011;52593;42.648;23.332;2023-09-19T10:22:16;11.40;;;4.90;;
65831;SDS011;52593;42.648;23.332;2023-09-19T10:24:47;14.10;;;5.53;;
65831;SDS011;52593;42.648;23.332;2023-09-19T10:27:16;9.55;;;4.68;;
65831;SDS011;52593;42.648;23.332;2023-09-19T10:29:42;11.65;;;5.13;;
65831;SDS011;52593;42.648;23.332;2023-09-19T10:32:12;11.70;;;5.60;;
65831;SDS011;52593;42.648;23.332;2023-09-19T10:34:43;11.20;;;4.73;;
65831;SDS011;52593;42.648;23.332;2023-09-19T10:37:14;9.30;;;4.90;;
65831;SDS011;52593;42.648;23.332;2023-09-19T10:39:41;12.50;;;6.10;;
65831;SDS011;52593;42.648;23.332;2023-09-19T10:42:19;12.73;;;5.93;;
65831;SDS011;52593;42.648;23.332;2023-09-19T10:44:48;9.63;;;4.28;;
65831;SDS011;52593;42.648;23.332;2023-09-19T10:47:19;9.50;;;4.50;;
65831;SDS011;52593;42.648;23.332;2023-09-19T10:49:45;11.70;;;5.07;;
65831;SDS011;52593;42.648;23.332;2023-09-19T10:52:12;10.95;;;4.70;;
65831;SDS011;52593;42.648;23.332;2023-09-19T10:54:45;12.38;;;4.80;;
65831;SDS011;52593;42.648;23.332;2023-09-19T10:57:18;10.18;;;4.68;;
65831;SDS011;52593;42.648;23.332;2023-09-19T11:00:05;9.37;;;4.60;;
65831;SDS011;52593;42.648;23.332;2023-09-19T11:05:36;9.10;;;4.47;;
65831;SDS011;52593;42.648;23.332;2023-09-19T11:08:05;11.32;;;4.80;;
65831;SDS011;52593;42.648;23.332;2023-09-19T11:13:23;17.07;;;6.13;;
65831;SDS011;52593;42.648;23.332;2023-09-19T11:26:47;9.67;;;5.33;;
65831;SDS011;52593;42.648;23.332;2023-09-19T11:29:29;10.40;;;5.68;;
65831;SDS011;52593;42.648;23.332;2023-09-19T11:31:58;13.95;;;5.70;;
65831;SDS011;52593;42.648;23.332;2023-09-19T11:37:01;9.18;;;5.10;;
65831;SDS011;52593;42.648;23.332;2023-09-19T11:39:29;9.10;;;4.80;;
65831;SDS011;52593;42.648;23.332;2023-09-19T11:41:55;9.13;;;4.72;;
65831;SDS011;52593;42.648;23.332;2023-09-19T11:44:31;11.23;;;5.70;;
65831;SDS011;52593;42.648;23.332;2023-09-19T11:47:03;9.82;;;5.05;;
65831;SDS011;52593;42.648;23.332;2023-09-19T11:49:30;15.35;;;6.95;;
65831;SDS011;52593;42.648;23.332;2023-09-19T11:51:58;8.30;;;4.50;;
65831;SDS011;52593;42.648;23.332;2023-09-19T11:54:31;11.35;;;5.22;;
65831;SDS011;52593;42.648;23.332;2023-09-19T11:56:57;9.23;;;4.85;;
65831;SDS011;52593;42.648;23.332;2023-09-19T11:59:25;9.30;;;4.70;;
65831;SDS011;52593;42.648;23.332;2023-09-19T12:02:04;10.95;;;4.57;;
65831;SDS011;52593;42.648;23.332;2023-09-19T12:07:07;9.82;;;4.45;;
65831;SDS011;52593;42.648;23.332;2023-09-19T12:09:50;8.80;;;4.55;;
65831;SDS011;52593;42.648;23.332;2023-09-19T12:12:29;9.30;;;5.07;;
65831;SDS011;52593;42.648;23.332;2023-09-19T12:14:55;10.27;;;5.87;;
65831;SDS011;52593;42.648;23.332;2023-09-19T12:17:23;12.98;;;5.97;;
65831;SDS011;52593;42.648;23.332;2023-09-19T12:19:52;10.88;;;5.32;;
65831;SDS011;52593;42.648;23.332;2023-09-19T12:22:19;10.05;;;5.03;;
65831;SDS011;52593;42.648;23.332;2023-09-19T12:24:48;11.30;;;5.05;;
65831;SDS011;52593;42.648;23.332;2023-09-19T12:27:13;8.27;;;4.57;;
65831;SDS011;52593;42.648;23.332;2023-09-19T12:29:45;10.80;;;4.53;;
65831;SDS011;52593;42.648;23.332;2023-09-19T12:32:14;10.27;;;4.47;;
65831;SDS011;52593;42.648;23.332;2023-09-19T12:34:52;8.25;;;4.70;;
65831;SDS011;52593;42.648;23.332;2023-09-19T12:37:19;9.73;;;4.50;;
65831;SDS011;52593;42.648;23.332;2023-09-19T12:39:48;8.60;;;4.75;;
65831;SDS011;52593;42.648;23.332;2023-09-19T12:42:16;11.40;;;4.65;;
65831;SDS011;52593;42.648;23.332;2023-09-19T12:44:45;9.73;;;4.37;;
65831;SDS011;52593;42.648;23.332;2023-09-19T12:47:15;9.38;;;4.15;;
65831;SDS011;52593;42.648;23.332;2023-09-19T12:52:49;10.23;;;5.50;;
65831;SDS011;52593;42.648;23.332;2023-09-19T12:55:30;9.30;;;5.47;;
65831;SDS011;52593;42.648;23.332;2023-09-19T13:00:31;10.00;;;5.57;;
65831;SDS011;52593;42.648;23.332;2023-09-19T13:03:12;10.23;;;4.78;;
65831;SDS011;52593;42.648;23.332;2023-09-19T13:05:57;9.77;;;4.72;;
65831;SDS011;52593;42.648;23.332;2023-09-19T13:13:26;11.85;;;4.88;;
65831;SDS011;52593;42.648;23.332;2023-09-19T13:15:53;8.20;;;4.32;;
65831;SDS011;52593;42.648;23.332;2023-09-19T13:18:19;8.13;;;4.38;;
65831;SDS011;52593;42.648;23.332;2023-09-19T13:21:04;8.93;;;4.25;;
65831;SDS011;52593;42.648;23.332;2023-09-19T13:23:31;10.50;;;4.20;;
65831;SDS011;52593;42.648;23.332;2023-09-19T13:25:56;9.50;;;4.18;;
65831;SDS011;52593;42.648;23.332;2023-09-19T13:28:22;11.33;;;5.63;;
65831;SDS011;52593;42.648;23.332;2023-09-19T13:30:47;9.73;;;4.80;;
65831;SDS011;52593;42.648;23.332;2023-09-19T13:33:13;6.27;;;3.97;;
65831;SDS011;52593;42.648;23.332;2023-09-19T13:35:45;8.48;;;4.55;;
65831;SDS011;52593;42.648;23.332;2023-09-19T13:38:13;7.70;;;4.57;;
65831;SDS011;52593;42.648;23.332;2023-09-19T13:40:39;9.93;;;4.70;;
65831;SDS011;52593;42.648;23.332;2023-09-19T13:43:07;8.10;;;5.18;;
65831;SDS011;52593;42.648;23.332;2023-09-19T13:45:33;8.17;;;4.67;;
65831;SDS011;52593;42.648;23.332;2023-09-19T13:47:59;9.32;;;5.10;;
65831;SDS011;52593;42.648;23.332;2023-09-19T13:50:25;8.88;;;5.35;;
65831;SDS011;52593;42.648;23.332;2023-09-19T13:52:54;9.33;;;5.07;;
65831;SDS011;52593;42.648;23.332;2023-09-19T13:55:19;8.77;;;5.45;;
65831;SDS011;52593;42.648;23.332;2023-09-19T13:57:46;9.63;;;5.15;;
65831;SDS011;52593;42.648;23.332;2023-09-19T14:00:15;11.20;;;5.50;;
65831;SDS011;52593;42.648;23.332;2023-09-19T14:02:41;10.38;;;7.13;;
65831;SDS011;52593;42.648;23.332;2023-09-19T14:05:11;17.67;;;12.82;;
65831;SDS011;52593;42.648;23.332;2023-09-19T14:07:41;15.98;;;11.05;;
65831;SDS011;52593;42.648;23.332;2023-09-19T14:10:11;11.07;;;7.70;;
65831;SDS011;52593;42.648;23.332;2023-09-19T14:12:36;14.77;;;11.10;;
65831;SDS011;52593;42.648;23.332;2023-09-19T14:15:04;11.40;;;8.25;;
65831;SDS011;52593;42.648;23.332;2023-09-19T14:17:29;17.98;;;11.32;;
65831;SDS011;52593;42.648;23.332;2023-09-19T14:19:55;22.57;;;18.13;;
65831;SDS011;52593;42.648;23.332;2023-09-19T14:22:20;18.47;;;13.50;;
65831;SDS011;52593;42.648;23.332;2023-09-19T14:24:46;17.58;;;10.73;;
65831;SDS011;52593;42.648;23.332;2023-09-19T14:27:12;17.93;;;11.13;;
65831;SDS011;52593;42.648;23.332;2023-09-19T14:29:38;14.13;;;9.68;;
65831;SDS011;52593;42.648;23.332;2023-09-19T14:32:04;14.13;;;9.87;;
65831;SDS011;52593;42.648;23.332;2023-09-19T14:34:30;17.77;;;12.70;;
65831;SDS011;52593;42.648;23.332;2023-09-19T14:36:56;17.55;;;12.07;;
65831;SDS011;52593;42.648;23.332;2023-09-19T14:39:21;14.63;;;8.87;;
65831;SDS011;52593;42.648;23.332;2023-09-19T14:41:48;12.23;;;7.32;;
65831;SDS011;52593;42.648;23.332;2023-09-19T14:44:13;23.10;;;17.37;;
65831;SDS011;52593;42.648;23.332;2023-09-19T14:46:41;17.48;;;11.18;;
65831;SDS011;52593;42.648;23.332;2023-09-19T14:49:06;11.05;;;7.30;;
65831;SDS011;52593;42.648;23.332;2023-09-19T14:51:32;16.50;;;8.30;;
65831;SDS011;52593;42.648;23.332;2023-09-19T14:53:57;18.70;;;11.67;;
65831;SDS011;52593;42.648;23.332;2023-09-19T14:56:23;17.55;;;12.05;;
65831;SDS011;52593;42.648;23.332;2023-09-19T14:58:50;18.75;;;12.60;;
65831;SDS011;52593;42.648;23.332;2023-09-19T15:01:16;21.53;;;10.50;;
65831;SDS011;52593;42.648;23.332;2023-09-19T15:03:41;16.90;;;10.73;;
65831;SDS011;52593;42.648;23.332;2023-09-19T15:06:09;13.90;;;8.77;;
65831;SDS011;52593;42.648;23.332;2023-09-19T15:08:39;12.15;;;7.93;;
65831;SDS011;52593;42.648;23.332;2023-09-19T15:11:05;15.87;;;7.90;;
65831;SDS011;52593;42.648;23.332;2023-09-19T15:13:32;13.68;;;7.30;;
65831;SDS011;52593;42.648;23.332;2023-09-19T15:16:04;12.10;;;7.03;;
65831;SDS011;52593;42.648;23.332;2023-09-19T15:18:34;16.88;;;6.68;;
65831;SDS011;52593;42.648;23.332;2023-09-19T15:21:02;12.35;;;6.38;;
65831;SDS011;52593;42.648;23.332;2023-09-19T15:23:29;11.60;;;6.60;;